createdAt,value
2019-03-11T00:00:30.212Z,4.97
2019-03-11T00:02:58.978Z,4.27
2019-03-11T00:05:27.702Z,4.40
2019-03-11T00:07:56.456Z,7.67
2019-03-11T00:10:25.192Z,5.27
2019-03-11T00:12:53.936Z,6.03
2019-03-11T00:15:24.264Z,3.37
2019-03-11T00:17:53.274Z,3.93
2019-03-11T00:20:22.224Z,4.20
2019-03-11T00:22:52.145Z,2.37
2019-03-11T00:25:21.096Z,2.10
2019-03-11T00:27:49.896Z,3.33
2019-03-11T00:30:19.024Z,2.43
2019-03-11T00:32:47.856Z,3.57
2019-03-11T00:35:16.606Z,2.30
2019-03-11T00:37:45.384Z,2.77
2019-03-11T00:40:14.376Z,2.00
2019-03-11T00:42:43.290Z,2.83
2019-03-11T00:45:12.665Z,2.77
2019-03-11T00:47:41.395Z,2.00
2019-03-11T00:50:10.425Z,2.17
2019-03-11T00:52:39.370Z,3.93
2019-03-11T00:55:08.583Z,1.90
2019-03-11T00:57:37.596Z,2.97
2019-03-11T01:00:08.572Z,1.73
2019-03-11T01:02:37.308Z,2.30
2019-03-11T01:05:06.317Z,1.90
2019-03-11T01:07:35.091Z,3.83
2019-03-11T01:10:05.588Z,2.90
2019-03-11T01:12:34.408Z,2.90
2019-03-11T01:15:04.456Z,2.30
2019-03-11T01:17:33.380Z,1.97
2019-03-11T01:20:02.173Z,2.90
2019-03-11T01:22:31.121Z,2.27
2019-03-11T01:24:59.963Z,2.57
2019-03-11T01:27:29.124Z,2.57
2019-03-11T01:29:57.866Z,1.63
2019-03-11T01:32:26.635Z,1.77
2019-03-11T01:34:55.592Z,1.97
2019-03-11T01:37:24.449Z,2.20
2019-03-11T01:39:53.567Z,1.80
2019-03-11T01:42:22.448Z,2.20
2019-03-11T01:44:51.409Z,2.10
2019-03-11T01:47:20.449Z,1.83
2019-03-11T01:49:49.440Z,1.60
2019-03-11T01:52:18.228Z,2.50
2019-03-11T01:54:47.600Z,2.83
2019-03-11T01:57:16.399Z,1.50
2019-03-11T01:59:45.264Z,2.13
2019-03-11T02:02:14.088Z,1.80
2019-03-11T02:04:43.633Z,1.33
2019-03-11T02:07:14.827Z,1.83
2019-03-11T02:09:43.688Z,1.40
2019-03-11T02:12:12.817Z,1.73
2019-03-11T02:14:41.552Z,2.00
2019-03-11T02:17:10.341Z,1.70
2019-03-11T02:19:39.055Z,2.30
2019-03-11T02:22:08.408Z,4.73
2019-03-11T02:24:37.268Z,1.57
2019-03-11T02:27:06.181Z,1.37
2019-03-11T02:29:35.252Z,1.60
2019-03-11T02:32:04.190Z,1.57
2019-03-11T02:34:34.095Z,1.40
2019-03-11T02:37:03.008Z,1.40
2019-03-11T02:39:32.164Z,1.77
2019-03-11T02:42:01.204Z,2.23
2019-03-11T02:44:30.317Z,1.67
2019-03-11T02:46:59.093Z,1.50
2019-03-11T02:49:28.257Z,1.70
2019-03-11T02:51:57.897Z,1.50
2019-03-11T02:54:27.787Z,2.87
2019-03-11T02:56:56.610Z,3.40
2019-03-11T02:59:25.547Z,2.10
2019-03-11T03:02:26.726Z,2.13
2019-03-11T03:05:15.523Z,2.63
2019-03-11T03:07:44.360Z,1.87
2019-03-11T03:10:13.621Z,2.80
2019-03-11T03:12:42.366Z,2.57
2019-03-11T03:15:11.396Z,2.07
2019-03-11T03:17:40.723Z,1.80
2019-03-11T03:20:10.788Z,1.87
2019-03-11T03:22:40.167Z,2.47
2019-03-11T03:25:09.468Z,2.77
2019-03-11T03:27:39.847Z,1.80
2019-03-11T03:30:14.542Z,2.40
2019-03-11T03:32:45.769Z,4.20
2019-03-11T03:35:14.677Z,1.40
2019-03-11T03:37:43.775Z,1.73
2019-03-11T03:40:12.699Z,1.90
2019-03-11T03:42:41.685Z,1.53
2019-03-11T03:45:40.010Z,2.33
2019-03-11T03:48:09.235Z,1.30
2019-03-11T03:50:38.949Z,1.90
2019-03-11T03:53:08.333Z,1.03
2019-03-11T03:55:37.168Z,0.87
2019-03-11T03:58:06.029Z,1.53
2019-03-11T04:00:35.008Z,0.70
2019-03-11T04:03:04.404Z,2.97
2019-03-11T04:05:33.253Z,2.13
2019-03-11T04:08:02.245Z,1.27
2019-03-11T04:10:32.990Z,0.70
2019-03-11T04:13:01.611Z,0.90
2019-03-11T04:15:30.340Z,1.00
2019-03-11T04:17:59.221Z,0.83
2019-03-11T04:20:28.152Z,1.00
2019-03-11T04:22:57.672Z,1.47
2019-03-11T04:25:28.566Z,3.07
2019-03-11T04:27:57.505Z,1.17
2019-03-11T04:30:26.498Z,1.47
2019-03-11T04:32:55.271Z,2.13
2019-03-11T04:35:24.080Z,1.40
2019-03-11T04:37:52.796Z,1.27
2019-03-11T04:40:21.667Z,1.57
2019-03-11T04:42:50.461Z,3.63
2019-03-11T04:45:20.117Z,1.67
2019-03-11T04:47:48.873Z,2.17
2019-03-11T04:50:17.776Z,1.70
2019-03-11T04:52:46.712Z,2.70
2019-03-11T04:55:15.565Z,2.13
2019-03-11T04:57:50.607Z,2.10
2019-03-11T05:00:24.260Z,1.90
2019-03-11T05:02:53.169Z,2.07
2019-03-11T05:05:22.069Z,1.37
2019-03-11T05:07:50.934Z,1.40
2019-03-11T05:10:20.087Z,1.30
2019-03-11T05:12:48.999Z,1.47
2019-03-11T05:15:17.968Z,1.30
2019-03-11T05:17:48.491Z,1.27
2019-03-11T05:20:17.817Z,1.50
2019-03-11T05:22:46.620Z,1.97
2019-03-11T05:25:15.590Z,2.00
2019-03-11T05:27:44.570Z,1.63
2019-03-11T05:30:15.341Z,4.67
2019-03-11T05:32:44.125Z,5.57
2019-03-11T05:35:13.090Z,1.23
2019-03-11T05:37:42.112Z,1.97
2019-03-11T05:40:11.664Z,1.30
2019-03-11T05:42:40.615Z,2.00
2019-03-11T05:45:11.094Z,1.67
2019-03-11T05:47:39.880Z,1.67
2019-03-11T05:50:10.156Z,2.10
2019-03-11T05:52:39.068Z,2.50
2019-03-11T05:55:08.185Z,1.90
2019-03-11T05:57:36.905Z,3.27
2019-03-11T06:00:08.538Z,4.93
2019-03-11T06:02:37.913Z,3.13
2019-03-11T06:05:07.159Z,2.23
2019-03-11T06:07:36.191Z,2.60
2019-03-11T06:10:05.930Z,3.33
2019-03-11T06:12:34.784Z,1.73
2019-03-11T06:15:03.798Z,1.77
2019-03-11T06:17:32.758Z,1.57
2019-03-11T06:20:12.219Z,2.90
2019-03-11T06:22:40.993Z,2.30
2019-03-11T06:25:10.742Z,2.13
2019-03-11T06:27:40.147Z,2.80
2019-03-11T06:30:09.060Z,1.43
2019-03-11T06:32:37.901Z,3.43
2019-03-11T06:35:06.829Z,5.63
2019-03-11T06:37:35.713Z,2.07
2019-03-11T06:40:04.759Z,2.07
2019-03-11T06:42:33.636Z,4.50
2019-03-11T06:45:02.666Z,4.00
2019-03-11T06:47:31.856Z,2.43
2019-03-11T06:50:01.311Z,1.10
2019-03-11T06:52:30.507Z,1.60
2019-03-11T06:54:59.651Z,1.43
2019-03-11T06:57:28.415Z,1.33
2019-03-11T06:59:57.392Z,0.70
2019-03-11T07:02:26.205Z,0.60
2019-03-11T07:04:54.999Z,0.90
2019-03-11T07:07:23.781Z,1.40
2019-03-11T07:09:52.588Z,2.90
2019-03-11T07:12:21.807Z,1.03
2019-03-11T07:14:50.609Z,1.03
2019-03-11T07:17:19.391Z,2.07
2019-03-11T07:19:54.035Z,0.77
2019-03-11T07:22:23.143Z,2.93
2019-03-11T07:24:52.750Z,1.10
2019-03-11T07:27:24.003Z,1.20
2019-03-11T07:29:53.016Z,1.23
2019-03-11T07:32:22.812Z,1.90
2019-03-11T07:34:51.765Z,2.13
2019-03-11T07:37:20.628Z,1.60
2019-03-11T07:39:49.604Z,1.47
2019-03-11T07:42:18.363Z,1.20
2019-03-11T07:44:47.267Z,1.77
2019-03-11T07:47:16.153Z,1.73
2019-03-11T07:49:45.050Z,1.43
2019-03-11T07:52:15.065Z,1.27
2019-03-11T07:54:44.276Z,1.80
2019-03-11T07:57:13.553Z,1.73
2019-03-11T07:59:45.436Z,3.40
2019-03-11T08:02:14.633Z,1.40
2019-03-11T08:04:43.604Z,0.70
2019-03-11T08:07:14.804Z,0.87
2019-03-11T08:09:43.728Z,1.53
2019-03-11T08:12:12.548Z,2.57
2019-03-11T08:14:41.296Z,2.30
2019-03-11T08:17:10.252Z,0.93
2019-03-11T08:19:39.236Z,0.70
2019-03-11T08:22:08.037Z,0.60
2019-03-11T08:24:36.820Z,1.07
2019-03-11T08:27:05.722Z,0.90
2019-03-11T08:29:34.760Z,0.70
2019-03-11T08:32:03.767Z,3.30
2019-03-11T08:34:33.785Z,1.40
2019-03-11T08:37:02.680Z,1.20
2019-03-11T08:39:31.442Z,0.83
2019-03-11T08:42:00.312Z,2.40
2019-03-11T08:44:29.037Z,1.03
2019-03-11T08:46:57.880Z,1.20
2019-03-11T08:49:26.802Z,1.50
2019-03-11T08:51:55.586Z,2.73
2019-03-11T08:54:24.314Z,1.90
2019-03-11T08:56:53.070Z,3.10
2019-03-11T08:59:22.416Z,3.27
2019-03-11T09:01:51.280Z,2.77
2019-03-11T09:04:20.144Z,2.53
2019-03-11T09:06:49.010Z,5.53
2019-03-11T09:09:17.780Z,4.50
2019-03-11T09:11:46.592Z,5.47
2019-03-11T09:14:15.616Z,4.73
2019-03-11T09:16:44.436Z,4.57
2019-03-11T09:19:13.165Z,6.13
2019-03-11T09:21:42.005Z,3.10
2019-03-11T09:24:18.853Z,6.77
2019-03-11T09:26:41.625Z,7.80
2019-03-11T09:29:10.435Z,8.13
2019-03-11T09:31:39.697Z,11.70
2019-03-11T09:34:08.500Z,9.27
2019-03-11T09:36:37.368Z,6.97
2019-03-11T09:39:09.040Z,6.43
2019-03-11T09:41:38.210Z,8.30
2019-03-11T09:44:07.288Z,7.53
2019-03-11T09:46:36.251Z,6.60
2019-03-11T09:49:05.360Z,16.90
2019-03-11T09:51:34.592Z,9.17
2019-03-11T09:54:03.336Z,9.63
2019-03-11T09:56:42.619Z,7.17
2019-03-11T09:59:02.761Z,5.97
2019-03-11T10:01:31.560Z,6.30
2019-03-11T10:04:00.537Z,6.23
2019-03-11T10:06:29.261Z,5.87
2019-03-11T10:08:58.093Z,7.97
2019-03-11T10:11:27.212Z,6.60
2019-03-11T10:13:56.216Z,7.80
2019-03-11T10:16:25.354Z,3.73
2019-03-11T10:18:54.171Z,5.60
2019-03-11T10:21:23.515Z,4.60
2019-03-11T10:23:52.285Z,3.57
2019-03-11T10:26:21.219Z,2.77
2019-03-11T10:28:50.245Z,6.00
2019-03-11T10:31:19.053Z,6.20
2019-03-11T10:33:47.812Z,8.13
2019-03-11T10:36:19.856Z,5.03
2019-03-11T10:38:48.639Z,5.17
2019-03-11T10:41:17.363Z,5.70
2019-03-11T10:43:46.452Z,6.20
2019-03-11T10:46:15.425Z,4.83
2019-03-11T10:48:44.700Z,3.00
2019-03-11T10:51:13.637Z,6.07
2019-03-11T10:53:43.883Z,5.23
2019-03-11T10:56:13.261Z,6.67
2019-03-11T10:58:42.509Z,5.10
2019-03-11T11:01:11.420Z,6.87
2019-03-11T11:03:40.155Z,2.20
2019-03-11T11:06:11.919Z,3.97
2019-03-11T11:08:41.085Z,3.87
2019-03-11T11:11:10.879Z,5.13
2019-03-11T11:13:39.880Z,2.93
2019-03-11T11:16:08.750Z,2.37
2019-03-11T11:18:37.698Z,2.63
2019-03-11T11:21:09.568Z,2.23
2019-03-11T11:23:39.586Z,1.40
2019-03-11T11:26:08.760Z,3.50
2019-03-11T11:28:37.692Z,2.20
2019-03-11T11:31:06.832Z,2.97
2019-03-11T11:33:36.566Z,2.70
2019-03-11T11:36:05.627Z,2.43
2019-03-11T11:38:34.485Z,2.93
2019-03-11T11:41:03.440Z,2.67
2019-03-11T11:43:33.708Z,2.87
2019-03-11T11:46:02.824Z,1.60
2019-03-11T11:48:31.636Z,0.77
2019-03-11T11:51:00.674Z,0.50
2019-03-11T11:53:29.774Z,3.13
2019-03-11T11:56:00.224Z,1.40
2019-03-11T11:58:29.331Z,0.50
2019-03-11T12:00:58.360Z,1.07
2019-03-11T12:03:27.161Z,3.43
2019-03-11T12:05:56.490Z,0.77
2019-03-11T12:08:25.540Z,0.93
2019-03-11T12:10:56.751Z,2.23
2019-03-11T12:13:25.752Z,1.60
2019-03-11T12:15:54.685Z,2.50
2019-03-11T12:18:23.496Z,1.00
2019-03-11T12:20:52.374Z,1.50
2019-03-11T12:23:21.686Z,2.27
2019-03-11T12:25:50.451Z,1.70
2019-03-11T12:28:19.514Z,0.70
2019-03-11T12:30:48.328Z,3.50
2019-03-11T12:33:17.122Z,0.90
2019-03-11T12:35:46.261Z,0.80
2019-03-11T12:38:15.316Z,0.70
2019-03-11T12:40:44.576Z,1.07
2019-03-11T12:43:13.317Z,1.90
2019-03-11T12:45:42.158Z,0.63
2019-03-11T12:48:11.471Z,1.17
2019-03-11T12:50:40.284Z,0.93
2019-03-11T12:53:09.201Z,0.40
2019-03-11T12:55:38.208Z,0.80
2019-03-11T12:58:07.173Z,0.67
2019-03-11T13:00:36.007Z,0.90
2019-03-11T13:03:05.028Z,1.30
2019-03-11T13:05:33.792Z,0.60
2019-03-11T13:08:02.884Z,0.57
2019-03-11T13:10:32.355Z,1.00
2019-03-11T13:13:01.525Z,1.10
2019-03-11T13:15:30.494Z,2.03
2019-03-11T13:18:49.832Z,1.17
2019-03-11T13:21:27.360Z,0.20
2019-03-11T13:23:57.245Z,0.87
2019-03-11T13:26:26.216Z,1.23
2019-03-11T13:28:55.632Z,1.90
2019-03-11T13:31:24.648Z,1.13
2019-03-11T13:33:53.635Z,1.90
2019-03-11T13:36:22.592Z,1.10
2019-03-11T13:38:53.032Z,0.70
2019-03-11T13:41:21.997Z,0.97
2019-03-11T13:43:50.845Z,0.70
2019-03-11T13:46:19.621Z,0.70
2019-03-11T13:48:48.772Z,0.90
2019-03-11T13:51:17.628Z,0.80
2019-03-11T13:53:46.617Z,0.60
2019-03-11T13:56:16.269Z,1.10
2019-03-11T13:58:45.532Z,0.73
2019-03-11T14:01:15.546Z,1.90
2019-03-11T14:03:45.774Z,2.00
2019-03-11T14:06:14.675Z,0.80
2019-03-11T14:08:44.752Z,0.93
2019-03-11T14:11:16.006Z,1.30
2019-03-11T14:13:45.057Z,0.80
2019-03-11T14:16:24.175Z,0.70
2019-03-11T14:18:53.023Z,0.70
2019-03-11T14:21:26.081Z,1.20
2019-03-11T14:23:56.056Z,1.70
2019-03-11T14:26:25.951Z,1.47
2019-03-11T14:28:54.887Z,3.73
2019-03-11T14:31:24.181Z,2.87
2019-03-11T14:33:53.086Z,3.83
2019-03-11T14:36:22.081Z,6.40
2019-03-11T14:38:51.541Z,6.53
2019-03-11T14:41:20.668Z,4.10
2019-03-11T14:43:49.550Z,4.47
2019-03-11T14:46:19.562Z,4.67
2019-03-11T14:48:49.524Z,3.57
2019-03-11T14:51:18.477Z,4.73
2019-03-11T14:53:47.357Z,3.70
2019-03-11T14:56:16.254Z,3.17
2019-03-11T14:58:45.813Z,3.33
2019-03-11T15:01:15.045Z,4.37
2019-03-11T15:03:44.898Z,2.83
2019-03-11T15:06:14.262Z,3.67
2019-03-11T15:08:43.524Z,2.77
2019-03-11T15:11:12.988Z,3.60
2019-03-11T15:13:42.424Z,4.60
2019-03-11T15:16:11.397Z,0.63
2019-03-11T15:18:41.758Z,0.80
2019-03-11T15:21:10.608Z,0.57
2019-03-11T15:23:39.438Z,1.03
2019-03-11T15:26:09.042Z,0.93
2019-03-11T15:28:38.821Z,1.67
2019-03-11T15:31:10.832Z,0.70
2019-03-11T15:33:38.412Z,1.03
2019-03-11T15:36:07.449Z,1.10
2019-03-11T15:38:36.397Z,0.93
2019-03-11T15:41:05.358Z,1.03
2019-03-11T15:43:35.578Z,1.03
2019-03-11T15:46:04.661Z,1.27
2019-03-11T15:48:33.604Z,2.03
2019-03-11T15:51:02.716Z,2.37
2019-03-11T15:53:31.909Z,1.23
2019-03-11T15:56:01.275Z,1.30
2019-03-11T15:58:30.627Z,2.33
2019-03-11T16:00:59.742Z,1.30
2019-03-11T16:03:36.220Z,1.27
2019-03-11T16:06:00.408Z,1.50
2019-03-11T16:08:29.512Z,2.47
2019-03-11T16:10:58.414Z,1.50
2019-03-11T16:13:27.415Z,1.63
2019-03-11T16:15:57.304Z,1.80
2019-03-11T16:18:26.401Z,1.63
2019-03-11T16:20:55.535Z,3.60
2019-03-11T16:23:24.688Z,2.13
2019-03-11T16:25:53.581Z,3.20
2019-03-11T16:28:23.503Z,1.50
2019-03-11T16:30:53.113Z,3.30
2019-03-11T16:33:23.237Z,1.63
2019-03-11T16:35:52.134Z,1.90
2019-03-11T16:38:21.040Z,2.80
2019-03-11T16:40:50.301Z,3.93
2019-03-11T16:43:21.244Z,1.97
2019-03-11T16:45:51.239Z,2.60
2019-03-11T16:48:20.273Z,2.30
2019-03-11T16:50:49.165Z,2.30
2019-03-11T16:53:18.248Z,4.40
2019-03-11T16:55:49.112Z,2.37
2019-03-11T16:58:17.908Z,2.73
2019-03-11T17:00:47.884Z,1.70
2019-03-11T17:03:17.080Z,2.07
2019-03-11T17:05:46.294Z,2.67
2019-03-11T17:08:15.101Z,4.40
2019-03-11T17:10:43.920Z,2.17
2019-03-11T17:13:13.176Z,3.27
2019-03-11T17:15:42.026Z,2.63
2019-03-11T17:18:10.950Z,4.20
2019-03-11T17:20:39.693Z,3.87
2019-03-11T17:23:08.424Z,4.20
2019-03-11T17:25:37.392Z,2.57
2019-03-11T17:28:06.280Z,3.90
2019-03-11T17:30:35.324Z,7.23
2019-03-11T17:33:04.303Z,4.50
2019-03-11T17:35:33.171Z,5.30
2019-03-11T17:38:02.140Z,5.17
2019-03-11T17:40:31.311Z,3.90
2019-03-11T17:43:00.648Z,4.17
2019-03-11T17:45:29.555Z,4.73
2019-03-11T17:47:58.644Z,4.23
2019-03-11T17:50:27.756Z,5.50
2019-03-11T17:55:30.885Z,7.80
2019-03-11T17:58:00.113Z,9.97
2019-03-11T18:00:31.056Z,5.20
2019-03-11T18:02:59.991Z,6.17
2019-03-11T18:05:28.965Z,7.77
2019-03-11T18:07:58.607Z,7.27
2019-03-11T18:10:28.564Z,8.20
2019-03-11T18:12:57.511Z,6.60
2019-03-11T18:15:26.319Z,8.73
2019-03-11T18:17:55.269Z,6.20
2019-03-11T18:20:24.075Z,6.10
2019-03-11T18:22:53.243Z,6.63
2019-03-11T18:25:22.164Z,5.73
2019-03-11T18:27:51.422Z,7.13
2019-03-11T18:30:20.674Z,4.63
2019-03-11T18:32:49.600Z,7.00
2019-03-11T18:35:18.653Z,4.53
2019-03-11T18:37:47.988Z,5.00
2019-03-11T18:40:17.340Z,6.07
2019-03-11T18:42:46.308Z,6.37
2019-03-11T18:45:15.250Z,8.13
2019-03-11T18:47:44.294Z,10.00
2019-03-11T18:50:14.921Z,7.93
2019-03-11T18:52:43.734Z,7.67
2019-03-11T18:55:13.234Z,6.57
2019-03-11T18:57:42.225Z,6.73
2019-03-11T19:00:12.114Z,6.53
2019-03-11T19:02:41.080Z,7.90
2019-03-11T19:05:10.757Z,6.73
2019-03-11T19:07:39.566Z,3.77
2019-03-11T19:10:09.768Z,5.77
2019-03-11T19:12:38.695Z,7.80
2019-03-11T19:15:08.855Z,7.17
2019-03-11T19:17:37.694Z,5.23
2019-03-11T19:20:08.148Z,6.17
2019-03-11T19:22:37.314Z,5.33
2019-03-11T19:25:06.543Z,7.00
2019-03-11T19:27:35.486Z,5.97
2019-03-11T19:30:05.750Z,9.65
2019-03-11T19:32:34.519Z,6.03
2019-03-11T19:35:05.231Z,7.17
2019-03-11T19:37:34.206Z,6.60
2019-03-11T19:40:04.697Z,4.67
2019-03-11T19:42:33.614Z,4.13
2019-03-11T19:45:02.707Z,6.50
2019-03-11T19:47:31.586Z,6.50
2019-03-11T19:50:01.316Z,5.43
2019-03-11T19:52:30.665Z,4.47
2019-03-11T19:54:59.689Z,5.13
2019-03-11T19:57:28.732Z,4.07
2019-03-11T19:59:58.064Z,6.53
2019-03-11T20:02:26.925Z,4.20
2019-03-11T20:04:55.947Z,6.40
2019-03-11T20:07:25.802Z,5.07
2019-03-11T20:09:54.817Z,6.40
2019-03-11T20:12:23.697Z,4.93
2019-03-11T20:14:52.627Z,6.27
2019-03-11T20:17:22.508Z,4.13
2019-03-11T20:19:51.457Z,5.80
2019-03-11T20:22:20.532Z,8.67
2019-03-11T20:24:49.674Z,4.63
2019-03-11T20:27:19.539Z,7.10
2019-03-11T20:29:49.785Z,8.37
2019-03-11T20:32:18.821Z,7.20
2019-03-11T20:34:47.707Z,9.43
2019-03-11T20:37:16.752Z,10.47
2019-03-11T20:39:45.969Z,7.83
2019-03-11T20:42:15.727Z,7.83
2019-03-11T20:44:44.857Z,11.03
2019-03-11T20:47:13.581Z,11.87
2019-03-11T20:49:42.480Z,7.40
2019-03-11T20:52:11.453Z,9.43
2019-03-11T20:54:40.434Z,8.43
2019-03-11T20:57:09.273Z,9.70
2019-03-11T20:59:38.452Z,10.03
2019-03-11T21:02:07.917Z,10.83
2019-03-11T21:04:37.237Z,8.63
2019-03-11T21:07:06.293Z,10.23
2019-03-11T21:09:35.996Z,8.00
2019-03-11T21:12:05.226Z,6.30
2019-03-11T21:14:34.571Z,11.73
2019-03-11T21:17:03.389Z,7.33
2019-03-11T21:19:32.393Z,10.43
2019-03-11T21:22:01.695Z,7.10
2019-03-11T21:24:30.448Z,7.03
2019-03-11T21:26:59.297Z,12.50
2019-03-11T21:29:29.826Z,5.17
2019-03-11T21:31:58.961Z,5.50
2019-03-11T21:34:27.846Z,4.90
2019-03-11T21:36:58.653Z,5.10
2019-03-11T21:39:27.682Z,9.33
2019-03-11T21:41:56.594Z,4.70
2019-03-11T21:44:25.646Z,7.07
2019-03-11T21:46:54.811Z,3.90
2019-03-11T21:49:23.816Z,4.67
2019-03-11T21:51:53.804Z,6.80
2019-03-11T21:54:23.097Z,4.43
2019-03-11T21:56:52.365Z,2.87
2019-03-11T21:59:27.087Z,5.53
2019-03-11T22:01:55.988Z,2.70
2019-03-11T22:04:26.896Z,2.27
2019-03-11T22:06:55.736Z,4.20
2019-03-11T22:09:26.731Z,2.57
2019-03-11T22:11:55.577Z,5.37
2019-03-11T22:14:24.855Z,3.97
2019-03-11T22:16:54.014Z,1.60
2019-03-11T22:19:23.144Z,2.20
2019-03-11T22:21:52.416Z,4.17
2019-03-11T22:24:21.980Z,3.60
2019-03-11T22:26:50.720Z,2.80
2019-03-11T22:29:19.605Z,3.20
2019-03-11T22:31:48.871Z,2.93
2019-03-11T22:34:17.992Z,3.97
2019-03-11T22:36:46.742Z,2.83
2019-03-11T22:39:18.887Z,8.23
2019-03-11T22:41:47.964Z,5.57
2019-03-11T22:44:16.757Z,7.07
2019-03-11T22:46:46.540Z,9.30
2019-03-11T22:49:15.396Z,11.77
2019-03-11T22:51:44.373Z,4.30
2019-03-11T22:54:13.217Z,5.43
2019-03-11T22:56:42.065Z,3.27
2019-03-11T22:59:11.002Z,4.67
2019-03-11T23:01:41.164Z,5.33
2019-03-11T23:04:10.409Z,5.37
2019-03-11T23:06:39.407Z,5.13
2019-03-11T23:09:10.423Z,7.23
2019-03-11T23:11:39.638Z,11.10
2019-03-11T23:14:08.352Z,9.50
2019-03-11T23:16:38.116Z,9.80
2019-03-11T23:19:07.268Z,7.80
2019-03-11T23:21:36.452Z,3.80
2019-03-11T23:24:05.639Z,7.40
2019-03-11T23:26:34.518Z,6.17
2019-03-11T23:29:05.774Z,5.90
2019-03-11T23:31:34.864Z,6.43
2019-03-11T23:34:04.217Z,8.43
2019-03-11T23:36:33.073Z,2.20
2019-03-11T23:39:02.253Z,5.43
2019-03-11T23:41:31.393Z,4.37
2019-03-11T23:44:00.292Z,6.33
2019-03-11T23:46:29.119Z,5.83
2019-03-11T23:48:57.869Z,3.17
2019-03-11T23:51:26.915Z,4.20
2019-03-11T23:53:56.124Z,7.10
2019-03-11T23:56:25.256Z,6.30
2019-03-11T23:58:54.128Z,5.43
